createdAt,value
2018-09-12T00:01:08.389Z,96244.00
2018-09-12T00:03:37.988Z,96240.00
2018-09-12T00:06:07.707Z,96231.00
2018-09-12T00:08:37.974Z,96233.00
2018-09-12T00:11:07.587Z,96237.00
2018-09-12T00:13:37.369Z,96232.00
2018-09-12T00:16:07.178Z,96227.00
2018-09-12T00:18:36.710Z,96232.00
2018-09-12T00:21:07.184Z,96227.00
2018-09-12T00:23:37.361Z,96223.00
2018-09-12T00:26:07.003Z,96221.00
2018-09-12T00:28:36.920Z,96213.00
2018-09-12T00:31:06.786Z,96208.00
2018-09-12T00:33:37.080Z,96212.00
2018-09-12T00:36:08.511Z,96209.00
2018-09-12T00:38:38.579Z,96203.00
2018-09-12T00:41:08.108Z,96207.00
2018-09-12T00:43:38.123Z,96202.00
2018-09-12T00:46:08.534Z,96203.00
2018-09-12T00:48:38.000Z,96206.00
2018-09-12T00:51:07.808Z,96210.00
2018-09-12T00:53:37.576Z,96206.00
2018-09-12T00:56:08.053Z,96205.00
2018-09-12T00:58:38.412Z,96207.00
2018-09-12T01:01:08.378Z,96206.00
2018-09-12T01:03:38.124Z,96195.00
2018-09-12T01:06:08.434Z,96203.00
2018-09-12T01:08:38.012Z,96205.00
2018-09-12T01:11:07.604Z,96201.00
2018-09-12T01:13:37.375Z,96205.00
2018-09-12T01:16:07.055Z,96205.00
2018-09-12T01:18:37.135Z,96196.00
2018-09-12T01:21:07.177Z,96204.00
2018-09-12T01:23:36.660Z,96205.00
2018-09-12T01:26:06.373Z,96201.00
2018-09-12T01:28:35.813Z,96199.00
2018-09-12T01:31:05.761Z,96194.00
2018-09-12T01:33:35.633Z,96197.00
2018-09-12T01:36:06.177Z,96192.00
2018-09-12T01:38:36.895Z,96191.00
2018-09-12T01:41:06.662Z,96195.00
2018-09-12T01:43:36.191Z,96182.00
2018-09-12T01:46:06.665Z,96188.00
2018-09-12T01:48:36.237Z,96189.00
2018-09-12T01:51:05.699Z,96186.00
2018-09-12T01:53:35.889Z,96176.00
2018-09-12T01:56:05.493Z,96175.00
2018-09-12T01:58:35.200Z,96171.00
2018-09-12T02:01:04.741Z,96174.00
2018-09-12T02:03:34.332Z,96180.00
2018-09-12T02:06:05.005Z,96185.00
2018-09-12T02:08:34.669Z,96171.00
2018-09-12T02:11:04.936Z,96172.00
2018-09-12T02:13:35.221Z,96167.00
2018-09-12T02:16:05.397Z,96167.00
2018-09-12T02:18:34.866Z,96172.00
2018-09-12T02:21:04.371Z,96168.00
2018-09-12T02:23:34.043Z,96163.00
2018-09-12T02:26:04.259Z,96154.00
2018-09-12T02:28:33.900Z,96150.00
2018-09-12T02:31:03.366Z,96152.00
2018-09-12T02:33:33.778Z,96141.00
2018-09-12T02:36:09.633Z,96142.00
2018-09-12T02:38:39.156Z,96134.00
2018-09-12T02:41:08.744Z,96133.00
2018-09-12T02:43:38.242Z,96133.00
2018-09-12T02:46:08.225Z,96126.00
2018-09-12T02:48:37.935Z,96126.00
2018-09-12T02:51:07.468Z,96120.00
2018-09-12T02:53:36.975Z,96118.00
2018-09-12T02:56:06.514Z,96118.00
2018-09-12T02:58:36.002Z,96111.00
2018-09-12T03:01:05.409Z,96115.00
2018-09-12T03:03:35.151Z,96119.00
2018-09-12T03:06:04.513Z,96112.00
2018-09-12T03:08:34.733Z,96112.00
2018-09-12T03:11:04.302Z,96104.00
2018-09-12T03:13:33.939Z,96101.00
2018-09-12T03:16:03.434Z,96099.00
2018-09-12T03:18:33.102Z,96102.00
2018-09-12T03:21:02.901Z,96097.00
2018-09-12T03:23:33.094Z,96097.00
2018-09-12T03:26:03.770Z,96091.00
2018-09-12T03:28:33.405Z,96090.00
2018-09-12T03:31:03.131Z,96087.00
2018-09-12T03:33:33.144Z,96072.00
2018-09-12T03:36:02.764Z,96077.00
2018-09-12T03:38:33.285Z,96080.00
2018-09-12T03:41:02.708Z,96087.00
2018-09-12T03:43:32.463Z,96075.00
2018-09-12T03:46:02.708Z,96075.00
2018-09-12T03:48:32.934Z,96078.00
2018-09-12T03:51:02.470Z,96077.00
2018-09-12T03:53:32.019Z,96069.00
2018-09-12T03:56:01.711Z,96068.00
2018-09-12T03:58:31.199Z,96070.00
2018-09-12T04:01:01.317Z,96066.00
2018-09-12T04:03:30.935Z,96065.00
2018-09-12T04:06:01.005Z,96058.00
2018-09-12T04:08:30.989Z,96064.00
2018-09-12T04:11:01.168Z,96056.00
2018-09-12T04:13:32.294Z,96056.00
2018-09-12T04:16:02.684Z,96055.00
2018-09-12T04:18:32.406Z,96060.00
2018-09-12T04:21:01.963Z,96060.00
2018-09-12T04:23:32.736Z,96063.00
2018-09-12T04:26:02.201Z,96054.00
2018-09-12T04:28:31.718Z,96060.00
2018-09-12T04:31:01.248Z,96058.00
2018-09-12T04:33:30.827Z,96058.00
2018-09-12T04:36:00.567Z,96054.00
2018-09-12T04:38:30.173Z,96054.00
2018-09-12T04:41:00.246Z,96061.00
2018-09-12T04:43:30.856Z,96063.00
2018-09-12T04:46:01.622Z,96055.00
2018-09-12T04:48:31.264Z,96060.00
2018-09-12T04:51:00.740Z,96069.00
2018-09-12T04:53:30.487Z,96065.00
2018-09-12T04:56:00.986Z,96060.00
2018-09-12T04:58:39.530Z,96061.00
2018-09-12T05:01:09.893Z,96060.00
2018-09-12T05:03:40.051Z,96053.00
2018-09-12T05:06:10.085Z,96046.00
2018-09-12T05:08:39.677Z,96047.00
2018-09-12T05:11:14.090Z,96053.00
2018-09-12T05:13:43.966Z,96049.00
2018-09-12T05:16:13.577Z,96056.00
2018-09-12T05:18:44.621Z,96053.00
2018-09-12T05:21:14.321Z,96056.00
2018-09-12T05:23:43.909Z,96050.00
2018-09-12T05:26:13.991Z,96050.00
2018-09-12T05:28:43.809Z,96053.00
2018-09-12T05:31:13.383Z,96061.00
2018-09-12T05:33:43.170Z,96060.00
2018-09-12T05:36:12.835Z,96057.00
2018-09-12T05:38:42.680Z,96061.00
2018-09-12T05:41:13.018Z,96070.00
2018-09-12T05:43:44.998Z,96067.00
2018-09-12T05:46:15.377Z,96066.00
2018-09-12T05:48:46.142Z,96064.00
2018-09-12T05:51:15.696Z,96060.00
2018-09-12T05:53:45.240Z,96061.00
2018-09-12T05:56:16.271Z,96061.00
2018-09-12T05:58:47.646Z,96065.00
2018-09-12T06:01:17.243Z,96063.00
2018-09-12T06:03:48.291Z,96068.00
2018-09-12T06:06:18.152Z,96071.00
2018-09-12T06:08:51.867Z,96061.00
2018-09-12T06:11:21.556Z,96056.00
2018-09-12T06:13:52.346Z,96059.00
2018-09-12T06:16:22.329Z,96063.00
2018-09-12T06:18:51.983Z,96062.00
2018-09-12T06:21:22.511Z,96071.00
2018-09-12T06:23:52.043Z,96061.00
2018-09-12T06:26:22.339Z,96060.00
2018-09-12T06:28:51.925Z,96057.00
2018-09-12T06:31:23.300Z,96054.00
2018-09-12T06:33:53.962Z,96068.00
2018-09-12T06:36:25.219Z,96059.00
2018-09-12T06:38:54.919Z,96066.00
2018-09-12T06:41:24.748Z,96063.00
2018-09-12T06:43:54.541Z,96057.00
2018-09-12T06:46:24.792Z,96064.00
2018-09-12T06:48:54.381Z,96051.00
2018-09-12T06:51:23.879Z,96053.00
2018-09-12T06:53:53.804Z,96048.00
2018-09-12T06:56:24.455Z,96055.00
2018-09-12T06:58:53.971Z,96057.00
2018-09-12T07:01:23.379Z,96052.00
2018-09-12T07:03:54.270Z,96048.00
2018-09-12T07:06:23.907Z,96046.00
2018-09-12T07:08:53.582Z,96046.00
2018-09-12T07:11:23.309Z,96049.00
2018-09-12T07:13:53.104Z,96040.00
2018-09-12T07:16:23.384Z,96049.00
2018-09-12T07:18:52.869Z,96055.00
2018-09-12T07:21:22.354Z,96056.00
2018-09-12T07:23:51.917Z,96052.00
2018-09-12T07:26:22.003Z,96053.00
2018-09-12T07:28:51.478Z,96058.00
2018-09-12T07:31:21.282Z,96061.00
2018-09-12T07:33:51.419Z,96065.00
2018-09-12T07:36:21.820Z,96072.00
2018-09-12T07:38:51.446Z,96076.00
2018-09-12T07:41:22.463Z,96065.00
2018-09-12T07:43:51.984Z,96068.00
2018-09-12T07:46:21.737Z,96071.00
2018-09-12T07:48:51.862Z,96058.00
2018-09-12T07:51:23.093Z,96067.00
2018-09-12T07:53:52.599Z,96063.00
2018-09-12T07:56:22.320Z,96064.00
2018-09-12T07:58:53.571Z,96069.00
2018-09-12T08:01:23.400Z,96065.00
2018-09-12T08:03:53.039Z,96068.00
2018-09-12T08:06:23.293Z,96077.00
2018-09-12T08:08:52.937Z,96079.00
2018-09-12T08:11:22.384Z,96089.00
2018-09-12T08:13:51.873Z,96088.00
2018-09-12T08:16:21.648Z,96084.00
2018-09-12T08:18:51.405Z,96084.00
2018-09-12T08:21:21.575Z,96089.00
2018-09-12T08:23:51.336Z,96087.00
2018-09-12T08:26:22.229Z,96098.00
2018-09-12T08:28:54.399Z,96089.00
2018-09-12T08:31:24.287Z,96096.00
2018-09-12T08:33:56.392Z,96094.00
2018-09-12T08:36:26.415Z,96102.00
2018-09-12T08:38:56.040Z,96104.00
2018-09-12T08:41:25.764Z,96089.00
2018-09-12T08:43:55.904Z,96095.00
2018-09-12T08:46:26.134Z,96097.00
2018-09-12T08:48:55.695Z,96102.00
2018-09-12T08:51:25.444Z,96110.00
2018-09-12T08:53:55.942Z,96107.00
2018-09-12T08:56:25.500Z,96096.00
2018-09-12T08:58:55.349Z,96099.00
2018-09-12T09:01:25.734Z,96107.00
2018-09-12T09:03:55.390Z,96096.00
2018-09-12T09:06:25.248Z,96103.00
2018-09-12T09:08:56.468Z,96107.00
2018-09-12T09:11:26.067Z,96110.00
2018-09-12T09:13:56.119Z,96109.00
2018-09-12T09:16:25.863Z,96100.00
2018-09-12T09:18:56.639Z,96100.00
2018-09-12T09:21:26.720Z,96095.00
2018-09-12T09:23:56.501Z,96090.00
2018-09-12T09:26:26.196Z,96090.00
2018-09-12T09:28:56.157Z,96094.00
2018-09-12T09:31:25.660Z,96091.00
2018-09-12T09:33:55.639Z,96082.00
2018-09-12T09:36:25.102Z,96082.00
2018-09-12T09:38:54.720Z,96080.00
2018-09-12T09:41:27.112Z,96092.00
2018-09-12T09:43:57.818Z,96078.00
2018-09-12T09:46:27.343Z,96083.00
2018-09-12T09:48:57.661Z,96080.00
2018-09-12T09:51:27.973Z,96086.00
2018-09-12T09:53:57.602Z,96078.00
2018-09-12T09:56:28.126Z,96075.00
2018-09-12T09:58:57.974Z,96076.00
2018-09-12T10:01:32.800Z,96078.00
2018-09-12T10:04:08.002Z,96078.00
2018-09-12T10:06:42.898Z,96067.00
2018-09-12T10:09:17.606Z,96081.00
2018-09-12T10:11:47.336Z,96078.00
2018-09-12T10:14:16.983Z,96081.00
2018-09-12T10:16:47.312Z,96078.00
2018-09-12T10:19:18.218Z,96086.00
2018-09-12T10:21:48.033Z,96085.00
2018-09-12T10:24:17.958Z,96090.00
2018-09-12T10:26:48.076Z,96087.00
2018-09-12T10:29:17.760Z,96090.00
2018-09-12T10:31:49.139Z,96088.00
2018-09-12T10:34:19.087Z,96091.00
2018-09-12T10:36:49.046Z,96088.00
2018-09-12T10:39:19.202Z,96084.00
2018-09-12T10:41:49.365Z,96085.00
2018-09-12T10:44:19.093Z,96082.00
2018-09-12T10:46:49.738Z,96078.00
2018-09-12T10:49:19.769Z,96076.00
2018-09-12T10:51:50.596Z,96075.00
2018-09-12T10:54:20.627Z,96079.00
2018-09-12T10:56:50.354Z,96073.00
2018-09-12T10:59:21.911Z,96067.00
2018-09-12T11:01:52.418Z,96062.00
2018-09-12T11:04:23.756Z,96061.00
2018-09-12T11:06:53.531Z,96051.00
2018-09-12T11:09:23.117Z,96054.00
2018-09-12T11:11:52.706Z,96046.00
2018-09-12T11:14:22.156Z,96043.00
2018-09-12T11:16:53.114Z,96043.00
2018-09-12T11:19:22.861Z,96037.00
2018-09-12T11:21:52.443Z,96026.00
2018-09-12T11:24:23.894Z,96031.00
2018-09-12T11:27:01.339Z,96032.00
2018-09-12T11:29:31.046Z,96034.00
2018-09-12T11:32:00.733Z,96030.00
2018-09-12T11:34:30.429Z,96022.00
2018-09-12T11:37:01.520Z,96021.00
2018-09-12T11:39:31.132Z,96024.00
2018-09-12T11:42:00.807Z,96020.00
2018-09-12T11:44:30.597Z,96021.00
2018-09-12T11:47:00.836Z,96017.00
2018-09-12T11:49:31.350Z,96009.00
2018-09-12T11:52:02.226Z,96008.00
2018-09-12T11:54:32.730Z,96015.00
2018-09-12T11:57:04.861Z,96010.00
2018-09-12T11:59:34.572Z,96018.00
2018-09-12T12:02:04.283Z,96015.00
2018-09-12T12:04:33.693Z,96013.00
2018-09-12T12:07:03.131Z,96014.00
2018-09-12T12:09:32.669Z,96006.00
2018-09-12T12:12:03.252Z,96013.00
2018-09-12T12:14:32.800Z,96011.00
2018-09-12T12:17:03.305Z,96001.00
2018-09-12T12:19:32.817Z,95998.00
2018-09-12T12:22:02.583Z,96006.00
2018-09-12T12:24:32.293Z,95991.00
2018-09-12T12:27:02.039Z,95981.00
2018-09-12T12:29:31.530Z,95986.00
2018-09-12T12:32:01.894Z,95988.00
2018-09-12T12:34:31.433Z,95977.00
2018-09-12T12:37:02.243Z,95978.00
2018-09-12T12:39:31.781Z,95976.00
2018-09-12T12:42:02.121Z,95975.00
2018-09-12T12:44:31.956Z,95964.00
2018-09-12T12:47:01.636Z,95955.00
2018-09-12T12:49:31.213Z,95954.00
2018-09-12T12:52:03.829Z,95955.00
2018-09-12T12:54:33.321Z,95944.00
2018-09-12T12:57:03.133Z,95937.00
2018-09-12T12:59:32.984Z,95943.00
2018-09-12T13:02:03.175Z,95927.00
2018-09-12T13:04:33.423Z,95922.00
2018-09-12T13:07:03.673Z,95918.00
2018-09-12T13:09:35.031Z,95908.00
2018-09-12T13:12:05.566Z,95917.00
2018-09-12T13:14:36.384Z,95918.00
2018-09-12T13:17:06.030Z,95908.00
2018-09-12T13:19:36.221Z,95905.00
2018-09-12T13:22:06.725Z,95906.00
2018-09-12T13:24:36.980Z,95911.00
2018-09-12T13:27:07.235Z,95909.00
2018-09-12T13:29:37.824Z,95904.00
2018-09-12T13:32:07.169Z,95906.00
2018-09-12T13:34:36.801Z,95890.00
2018-09-12T13:37:06.388Z,95896.00
2018-09-12T13:39:36.123Z,95890.00
2018-09-12T13:42:05.812Z,95889.00
2018-09-12T13:44:36.652Z,95890.00
2018-09-12T13:47:06.182Z,95883.00
2018-09-12T13:49:36.809Z,95885.00
2018-09-12T13:52:06.388Z,95885.00
2018-09-12T13:54:36.408Z,95876.00
2018-09-12T13:57:06.496Z,95884.00
2018-09-12T13:59:35.975Z,95878.00
2018-09-12T14:02:05.675Z,95884.00
2018-09-12T14:04:35.231Z,95873.00
2018-09-12T14:07:04.889Z,95875.00
2018-09-12T14:09:35.657Z,95874.00
2018-09-12T14:12:05.772Z,95865.00
2018-09-12T14:14:44.389Z,95867.00
2018-09-12T14:17:13.896Z,95861.00
2018-09-12T14:19:43.284Z,95867.00
2018-09-12T14:22:12.853Z,95866.00
2018-09-12T14:24:42.692Z,95871.00
2018-09-12T14:27:12.565Z,95868.00
2018-09-12T14:29:42.535Z,95865.00
2018-09-12T14:32:12.294Z,95857.00
2018-09-12T14:34:42.663Z,95832.00
2018-09-12T14:37:12.615Z,95842.00
2018-09-12T14:39:42.175Z,95834.00
2018-09-12T14:42:11.743Z,95833.00
2018-09-12T14:44:41.257Z,95833.00
2018-09-12T14:47:10.869Z,95837.00
2018-09-12T14:49:41.939Z,95827.00
2018-09-12T14:52:11.683Z,95829.00
2018-09-12T14:54:41.357Z,95825.00
2018-09-12T14:57:11.442Z,95834.00
2018-09-12T14:59:41.773Z,95837.00
2018-09-12T15:02:11.323Z,95831.00
2018-09-12T15:04:40.946Z,95825.00
2018-09-12T15:07:10.799Z,95822.00
2018-09-12T15:09:40.421Z,95825.00
2018-09-12T15:12:10.673Z,95827.00
2018-09-12T15:14:40.398Z,95822.00
2018-09-12T15:17:11.279Z,95811.00
2018-09-12T15:19:41.533Z,95807.00
2018-09-12T15:22:11.213Z,95820.00
2018-09-12T15:24:40.660Z,95817.00
2018-09-12T15:27:10.267Z,95814.00
2018-09-12T15:29:40.037Z,95817.00
2018-09-12T15:32:10.436Z,95809.00
2018-09-12T15:34:40.018Z,95809.00
2018-09-12T15:37:10.553Z,95810.00
2018-09-12T15:39:40.021Z,95805.00
2018-09-12T15:42:09.683Z,95805.00
2018-09-12T15:44:39.498Z,95804.00
2018-09-12T15:47:09.358Z,95802.00
2018-09-12T15:49:38.931Z,95807.00
2018-09-12T15:52:09.486Z,95800.00
2018-09-12T15:54:39.098Z,95796.00
2018-09-12T15:57:09.362Z,95795.00
2018-09-12T15:59:38.901Z,95802.00
2018-09-12T16:02:08.654Z,95792.00
2018-09-12T16:04:38.268Z,95789.00
2018-09-12T16:07:07.821Z,95792.00
2018-09-12T16:09:37.380Z,95783.00
2018-09-12T16:12:08.746Z,95782.00
2018-09-12T16:14:38.452Z,95773.00
2018-09-12T16:17:09.008Z,95779.00
2018-09-12T16:19:38.765Z,95772.00
2018-09-12T16:22:08.475Z,95774.00
2018-09-12T16:24:37.959Z,95769.00
2018-09-12T16:27:07.653Z,95769.00
2018-09-12T16:29:37.114Z,95763.00
2018-09-12T16:32:07.131Z,95757.00
2018-09-12T16:34:36.541Z,95762.00
2018-09-12T16:37:06.533Z,95759.00
2018-09-12T16:39:36.705Z,95761.00
2018-09-12T16:42:07.243Z,95763.00
2018-09-12T16:44:37.776Z,95759.00
2018-09-12T16:47:08.192Z,95756.00
2018-09-12T16:49:37.664Z,95758.00
2018-09-12T16:52:07.825Z,95757.00
2018-09-12T16:54:37.418Z,95760.00
2018-09-12T16:57:09.314Z,95763.00
2018-09-12T16:59:39.596Z,95757.00
2018-09-12T17:02:09.386Z,95763.00
2018-09-12T17:04:39.319Z,95758.00
2018-09-12T17:07:08.870Z,95756.00
2018-09-12T17:09:38.629Z,95764.00
2018-09-12T17:12:08.134Z,95754.00
2018-09-12T17:14:37.808Z,95755.00
2018-09-12T17:17:07.471Z,95750.00
2018-09-12T17:19:37.089Z,95752.00
2018-09-12T17:22:07.414Z,95755.00
2018-09-12T17:24:36.983Z,95751.00
2018-09-12T17:27:06.589Z,95748.00
2018-09-12T17:29:38.087Z,95750.00
2018-09-12T17:32:07.853Z,95738.00
2018-09-12T17:34:37.383Z,95742.00
2018-09-12T17:37:08.070Z,95745.00
2018-09-12T17:39:38.483Z,95748.00
2018-09-12T17:42:08.899Z,95750.00
2018-09-12T17:44:39.229Z,95745.00
2018-09-12T17:47:08.880Z,95742.00
2018-09-12T17:49:39.391Z,95745.00
2018-09-12T17:52:10.792Z,95743.00
2018-09-12T17:54:40.398Z,95750.00
2018-09-12T17:57:11.162Z,95751.00
2018-09-12T17:59:42.592Z,95751.00
2018-09-12T18:02:15.464Z,95749.00
2018-09-12T18:04:45.119Z,95746.00
2018-09-12T18:07:15.829Z,95757.00
2018-09-12T18:09:48.162Z,95755.00
2018-09-12T18:12:17.957Z,95757.00
2018-09-12T18:14:47.912Z,95766.00
2018-09-12T18:17:29.923Z,95760.00
2018-09-12T18:20:02.368Z,95760.00
2018-09-12T18:22:32.672Z,95765.00
2018-09-12T18:25:02.254Z,95774.00
2018-09-12T18:27:32.615Z,95771.00
2018-09-12T18:30:04.285Z,95783.00
2018-09-12T18:32:33.712Z,95784.00
2018-09-12T18:35:04.909Z,95790.00
2018-09-12T18:37:36.085Z,95791.00
2018-09-12T18:40:06.197Z,95789.00
2018-09-12T18:42:36.453Z,95782.00
2018-09-12T18:45:06.663Z,95790.00
2018-09-12T18:47:37.943Z,95790.00
2018-09-12T18:50:07.580Z,95787.00
2018-09-12T18:52:38.239Z,95789.00
2018-09-12T18:55:13.951Z,95783.00
2018-09-12T18:57:43.674Z,95780.00
2018-09-12T19:00:15.623Z,95775.00
2018-09-12T19:02:54.491Z,95776.00
2018-09-12T19:05:27.583Z,95778.00
2018-09-12T19:07:59.929Z,95776.00
2018-09-12T19:10:30.149Z,95784.00
2018-09-12T19:13:05.381Z,95782.00
2018-09-12T19:15:37.019Z,95788.00
2018-09-12T19:18:09.399Z,95780.00
2018-09-12T19:20:40.120Z,95783.00
2018-09-12T19:23:11.314Z,95779.00
2018-09-12T19:25:41.824Z,95788.00
2018-09-12T19:28:12.295Z,95786.00
2018-09-12T19:30:43.083Z,95790.00
2018-09-12T19:33:15.242Z,95791.00
2018-09-12T19:35:45.629Z,95798.00
2018-09-12T19:38:18.011Z,95789.00
2018-09-12T19:40:49.341Z,95794.00
2018-09-12T19:43:22.247Z,95799.00
2018-09-12T19:45:54.142Z,95799.00
2018-09-12T19:48:24.983Z,95793.00
2018-09-12T19:50:55.208Z,95791.00
2018-09-12T19:53:26.018Z,95800.00
2018-09-12T19:55:57.446Z,95795.00
2018-09-12T19:58:28.889Z,95801.00
2018-09-12T20:00:58.550Z,95796.00
2018-09-12T20:03:29.467Z,95806.00
2018-09-12T20:06:01.492Z,95805.00
2018-09-12T20:08:35.968Z,95797.00
2018-09-12T20:11:06.060Z,95795.00
2018-09-12T20:13:38.724Z,95789.00
2018-09-12T20:16:11.693Z,95788.00
2018-09-12T20:18:42.733Z,95785.00
2018-09-12T20:21:14.102Z,95774.00
2018-09-12T20:23:44.369Z,95778.00
2018-09-12T20:26:14.641Z,95782.00
2018-09-12T20:28:48.873Z,95782.00
2018-09-12T20:31:18.895Z,95777.00
2018-09-12T20:33:48.495Z,95777.00
2018-09-12T20:36:18.249Z,95770.00
2018-09-12T20:38:48.887Z,95777.00
2018-09-12T20:41:19.393Z,95779.00
2018-09-12T20:43:49.091Z,95776.00
2018-09-12T20:46:20.992Z,95771.00
2018-09-12T20:48:50.827Z,95774.00
2018-09-12T20:51:21.568Z,95770.00
2018-09-12T20:53:52.873Z,95775.00
2018-09-12T20:56:23.409Z,95772.00
2018-09-12T20:58:53.019Z,95768.00
2018-09-12T21:01:24.398Z,95774.00
2018-09-12T21:03:54.208Z,95769.00
2018-09-12T21:06:23.958Z,95770.00
2018-09-12T21:08:53.814Z,95768.00
2018-09-12T21:11:24.375Z,95764.00
2018-09-12T21:13:55.708Z,95774.00
2018-09-12T21:16:25.525Z,95764.00
2018-09-12T21:18:55.313Z,95765.00
2018-09-12T21:21:24.916Z,95766.00
2018-09-12T21:23:54.894Z,95758.00
2018-09-12T21:26:24.956Z,95761.00
2018-09-12T21:29:02.490Z,95752.00
2018-09-12T21:31:32.817Z,95757.00
2018-09-12T21:34:03.910Z,95746.00
2018-09-12T21:36:34.369Z,95746.00
2018-09-12T21:39:05.041Z,95743.00
2018-09-12T21:41:34.710Z,95751.00
2018-09-12T21:44:09.934Z,95746.00
2018-09-12T21:46:39.484Z,95753.00
2018-09-12T21:49:09.898Z,95751.00
2018-09-12T21:51:40.273Z,95757.00
2018-09-12T21:54:09.778Z,95744.00
2018-09-12T21:56:39.271Z,95747.00
2018-09-12T21:59:08.675Z,95729.00
2018-09-12T22:01:38.942Z,95738.00
2018-09-12T22:04:08.481Z,95732.00
2018-09-12T22:06:39.029Z,95732.00
2018-09-12T22:09:12.381Z,95736.00
2018-09-12T22:11:43.097Z,95739.00
2018-09-12T22:14:12.756Z,95731.00
2018-09-12T22:16:42.393Z,95722.00
2018-09-12T22:19:12.584Z,95719.00
2018-09-12T22:21:42.191Z,95721.00
2018-09-12T22:24:11.682Z,95720.00
2018-09-12T22:26:41.738Z,95710.00
2018-09-12T22:29:11.376Z,95722.00
2018-09-12T22:31:41.070Z,95717.00
2018-09-12T22:34:11.741Z,95708.00
2018-09-12T22:36:41.202Z,95709.00
2018-09-12T22:39:12.058Z,95707.00
2018-09-12T22:41:42.940Z,95717.00
2018-09-12T22:44:12.721Z,95710.00
2018-09-12T22:46:42.408Z,95711.00
2018-09-12T22:49:12.563Z,95725.00
2018-09-12T22:51:42.995Z,95721.00
2018-09-12T22:54:13.076Z,95714.00
2018-09-12T22:56:42.702Z,95715.00
2018-09-12T22:59:13.424Z,95714.00
2018-09-12T23:01:43.324Z,95698.00
2018-09-12T23:04:13.576Z,95697.00
2018-09-12T23:06:43.074Z,95700.00
2018-09-12T23:09:13.279Z,95696.00
2018-09-12T23:11:44.157Z,95690.00
2018-09-12T23:14:13.619Z,95685.00
2018-09-12T23:16:44.147Z,95689.00
2018-09-12T23:19:13.841Z,95686.00
2018-09-12T23:21:43.347Z,95680.00
2018-09-12T23:24:13.001Z,95667.00
2018-09-12T23:26:42.869Z,95668.00
2018-09-12T23:29:12.700Z,95667.00
2018-09-12T23:31:42.515Z,95674.00
2018-09-12T23:34:12.324Z,95672.00
2018-09-12T23:36:41.836Z,95659.00
2018-09-12T23:39:13.319Z,95663.00
2018-09-12T23:41:43.103Z,95673.00
2018-09-12T23:44:13.642Z,95664.00
2018-09-12T23:46:43.319Z,95668.00
2018-09-12T23:49:13.688Z,95665.00
2018-09-12T23:51:43.812Z,95669.00
2018-09-12T23:54:13.298Z,95666.00
2018-09-12T23:56:42.853Z,95659.00
2018-09-12T23:59:12.524Z,95662.00
